To NAV CANADA Home Page Login to a new session Search on AWWS site Feedback and Comments Disclaimer Vers la page française équivalente Tips FAQ What's new on the site To the Forecasts and Observations / NOTAM section To "File a Flight Plan" website Publications and other links Update of the User's profile FIC Telephone Numbers My Weather Data Folder Route Weather Data Regional Weather Data Local Weather Data To the Forecasts and Observations / NOTAM section
Request Generated 12/04/2016 at 22:21:52 UTC . Weather information available at that time is displayed.

METAR/TAF

FORT ST. JOHN/BC    

METAR CYXJ 042200Z 33012KT 10SM -SN DRSN OVC025 M17/M21 A3003 RMK SC8
SLP226=
METAR CYXJ 042100Z 33012G18KT 4SM -SN DRSN OVC014 M17/M21 A3001 RMK
SC8 SLP217=
SPECI CYXJ 042011Z 34014G20KT 4SM -SN DRSN OVC016 M17/M21 A2999 RMK
SC8 SLP210=
METAR CYXJ 042000Z 34014KT 2 1/2SM -SN DRSN OVC012 M17/M21 A2999 RMK
SC8 SLP209=

TAF CYXJ 041838Z 0419/0507 35015G25KT 1SM -SN OVC009 TEMPO 0419/0421
4SM -SN OVC015
FM042100 33015G25KT 6SM -SN SCT015 OVC025 TEMPO 0421/0507 2SM -SN
OVC015
RMK NXT FCST BY 050100Z=
Your time UTC time
Weather data provided by Environment Canada and NAV CANADA